Girolata — FPOD — position and weather

sailwx.info

Track history (hours):
 
Tides and Currents Weather Stations Pressure Air Temp Water Temp Dewpoint Dewpoint Depression Visibility Wind Speed Wind Dir Waves Ship Positions

Girolata

Last reported at 2017-Jul-22 18:11 UTC. Time now 2017-Jul-22 18:34 UTC.
Position N 43°08' E 005°23'.

Length 177 m; beam 27 m.

Type: Passenger vessel. MMSI: 226245000.

Date/timePositionNaut miles runAvg speedWind from/ knotsBaromVisibWave heightAir tempDewpointWater temp
2017-Jul-22 18:11N 43°08' E 005°23'315.5
2017-Jul-22 18:00N 43°10' E 005°20'712.8
2017-Jul-22 17:29N 43°17' E 005°20'2 0.3
2017-Jul-22 09:36N 43°19' E 005°22'0 0.0
2017-Jul-22 08:45N 43°19' E 005°22'0 0.0
2017-Jul-22 08:30N 43°19' E 005°22'0 0.0
2017-Jul-22 08:00N 43°19' E 005°22'0 0.0
2017-Jul-22 06:06N 43°19' E 005°22'0 0.0
2017-Jul-22 06:00N 43°19' E 005°22'0 0.0
2017-Jul-22 05:30N 43°19' E 005°22'0 0.0
2017-Jul-22 05:00N 43°19' E 005°22'0 0.2
2017-Jul-22 04:30N 43°19' E 005°22'510.3
2017-Jul-22 04:01N 43°14' E 005°18'816.4
2017-Jul-22 03:30N 43°08' E 005°25'1317.2
2017-Jul-22 02:45N 43°01' E 005°40'119 4.8
2017-Jul-21 01:57N 42°02' E 008°00'818.2
2017-Jul-21 01:31N 42°06' E 007°51'918.3
2017-Jul-21 01:01N 42°11' E 007°40'918.2
2017-Jul-21 00:31N 42°15' E 007°29'918.2
2017-Jul-21 00:01N 42°20' E 007°18'918.0
2017-Jul-20 23:30N 42°24' E 007°08'918.3
2017-Jul-20 23:00N 42°28' E 006°57'918.2
2017-Jul-20 22:30N 42°34' E 006°46'918.1
2017-Jul-20 22:01N 42°38' E 006°36'918.2
2017-Jul-20 21:30N 42°42' E 006°25'918.4
2017-Jul-20 21:00N 42°47' E 006°14'918.4
2017-Jul-20 20:30N 42°51' E 006°03'918.4
2017-Jul-20 20:00N 42°56' E 005°52'2418.2
2017-Jul-20 18:41N 43°08' E 005°24'318.4
2017-Jul-20 18:30N 43°10' E 005°21'713.7
2017-Jul-20 17:59N 43°18' E 005°20'1 2.7
2017-Jul-20 17:26N 43°19' E 005°22'0 0.0
2017-Jul-20 16:59N 43°19' E 005°22'0 0.0
2017-Jul-20 16:29N 43°19' E 005°22'0 0.0
2017-Jul-20 15:59N 43°19' E 005°22'0 0.0
2017-Jul-20 15:29N 43°19' E 005°22'0 0.0
2017-Jul-20 14:59N 43°19' E 005°22'0 0.0
2017-Jul-20 13:59N 43°19' E 005°22'0 0.0
2017-Jul-20 13:29N 43°19' E 005°22'0 0.0
2017-Jul-20 12:59N 43°19' E 005°22'0 0.0
2017-Jul-20 12:29N 43°19' E 005°22'0 0.0
2017-Jul-20 11:56N 43°19' E 005°22'0 0.0
2017-Jul-20 11:26N 43°19' E 005°22'0 0.0
2017-Jul-20 10:56N 43°19' E 005°22'0 0.0
2017-Jul-20 10:26N 43°19' E 005°22'0 0.0
2017-Jul-20 09:53N 43°19' E 005°22'0 0.0
2017-Jul-20 09:23N 43°19' E 005°22'0 0.0
2017-Jul-20 08:59N 43°19' E 005°22'0 0.0
2017-Jul-20 08:29N 43°19' E 005°22'0 0.0
2017-Jul-20 07:59N 43°19' E 005°22'0 0.0
2017-Jul-20 07:29N 43°19' E 005°22'0 0.0
2017-Jul-20 06:59N 43°19' E 005°22'0 0.0
2017-Jul-20 06:29N 43°19' E 005°22'0 0.0
2017-Jul-20 05:56N 43°19' E 005°22'0 0.0
2017-Jul-20 05:11N 43°19' E 005°22'0 0.0
2017-Jul-20 04:56N 43°19' E 005°22'2 3.0
2017-Jul-20 04:17N 43°17' E 005°20'312.0
2017-Jul-20 04:00N 43°14' E 005°18'816.9
2017-Jul-20 03:30N 43°08' E 005°25'2217.5
2017-Jul-20 02:14N 42°56' E 005°52'417.7
2017-Jul-20 01:59N 42°54' E 005°56'817.7
2017-Jul-20 01:30N 42°49' E 006°06'917.5
2017-Jul-20 01:00N 42°45' E 006°16'917.6
2017-Jul-20 00:31N 42°41' E 006°27'917.3
2017-Jul-20 00:01N 42°37' E 006°38'917.3
2017-Jul-19 23:31N 42°33' E 006°48'917.3
2017-Jul-19 23:00N 42°29' E 006°59'917.3
2017-Jul-19 22:31N 42°24' E 007°08'917.4
2017-Jul-19 22:00N 42°20' E 007°18'917.3
2017-Jul-19 21:31N 42°16' E 007°29'917.4
2017-Jul-19 21:00N 42°12' E 007°39'917.4
2017-Jul-19 20:30N 42°07' E 007°49'917.4
2017-Jul-19 20:00N 42°03' E 007°59'917.5
2017-Jul-19 19:30N 41°59' E 008°09'917.4
2017-Jul-19 19:00N 41°54' E 008°20'917.4
2017-Jul-19 18:30N 41°50' E 008°30'816.7
2017-Jul-19 18:00N 41°52' E 008°41'2 0.2
2017-Jul-19 03:59N 41°53' E 008°43'816.7
2017-Jul-19 03:30N 41°49' E 008°34'1418.6
2017-Jul-19 02:45N 41°56' E 008°17'1018.7
2017-Jul-19 02:14N 42°00' E 008°05'918.2
2017-Jul-19 01:46N 42°05' E 007°55'718.3
2017-Jul-19 01:23N 42°08' E 007°47'918.3
2017-Jul-19 00:53N 42°13' E 007°36'918.4
2017-Jul-19 00:23N 42°17' E 007°25'718.2
2017-Jul-19 00:01N 42°21' E 007°17'918.2
2017-Jul-18 23:30N 42°25' E 007°07'918.3
2017-Jul-18 23:00N 42°29' E 006°56'918.1
2017-Jul-18 22:30N 42°34' E 006°45'816.4
2017-Jul-18 22:01N 42°38' E 006°35'1318.1
2017-Jul-18 21:17N 42°44' E 006°20'718.3
2017-Jul-18 20:55N 42°48' E 006°12'1218.3
2017-Jul-18 20:17N 42°53' E 005°58'518.2
2017-Jul-18 20:00N 42°56' E 005°52'918.3
2017-Jul-18 19:30N 43°00' E 005°41'918.5
2017-Jul-18 19:00N 43°05' E 005°30'918.2
2017-Jul-18 18:30N 43°10' E 005°20'713.8
2017-Jul-18 18:00N 43°17' E 005°20'2 2.5
2017-Jul-18 17:17N 43°19' E 005°22'0 0.0
2017-Jul-18 16:59N 43°19' E 005°22'0 0.0
2017-Jul-18 16:29N 43°19' E 005°22'0 0.0
2017-Jul-18 15:59N 43°19' E 005°22'0 0.0
2017-Jul-18 15:29N 43°19' E 005°22'0 0.0
2017-Jul-18 14:59N 43°19' E 005°22'0 0.0
2017-Jul-18 13:59N 43°19' E 005°22'0 0.0
2017-Jul-18 13:23N 43°19' E 005°22'0 0.0
2017-Jul-18 12:47N 43°19' E 005°22'0 0.0
2017-Jul-18 12:29N 43°19' E 005°22'0 0.0
2017-Jul-18 09:08N 43°19' E 005°22'0 0.0
2017-Jul-18 08:47N 43°19' E 005°22'0 0.0
2017-Jul-18 07:26N 43°19' E 005°22'0 0.0
2017-Jul-18 05:26N 43°19' E 005°22'1 1.5
2017-Jul-18 05:00N 43°18' E 005°22'1 2.5
2017-Jul-18 04:30N 43°18' E 005°20'4 8.1
2017-Jul-18 04:00N 43°14' E 005°18'1516.1
2017-Jul-18 03:06N 43°04' E 005°33'416.3
2017-Jul-18 02:50N 43°02' E 005°38'3016.7
2017-Jul-18 01:03N 42°47' E 006°13'316.8
2017-Jul-18 00:52N 42°45' E 006°16'616.9
2017-Jul-18 00:31N 42°42' E 006°24'1216.7
2017-Jul-17 23:46N 42°37' E 006°39'416.6
2017-Jul-17 23:31N 42°35' E 006°44'816.6
2017-Jul-17 23:01N 42°31' E 006°54'816.6
2017-Jul-17 22:30N 42°26' E 007°03'816.5
2017-Jul-17 22:01N 42°22' E 007°13'816.7
2017-Jul-17 21:31N 42°18' E 007°23'816.7
2017-Jul-17 21:01N 42°15' E 007°33'816.5
2017-Jul-17 20:31N 42°11' E 007°42'11 0.5
2017-Jul-17 00:35N 42°15' E 007°29'217.1
2017-Jul-17 00:27N 42°16' E 007°27'6016.7
2017-Jul-16 20:52N 42°46' E 006°16'616.8
2017-Jul-16 20:30N 42°49' E 006°09'916.8
2017-Jul-16 20:00N 42°53' E 005°58'1416.8
2017-Jul-16 19:11N 42°60' E 005°42'416.8
2017-Jul-16 18:55N 43°02' E 005°37'1716.8
2017-Jul-16 17:55N 43°12' E 005°19'512.4
2017-Jul-16 17:30N 43°17' E 005°20'2 0.1
2017-Jul-16 05:33N 43°18' E 005°22'0 7.5
2017-Jul-16 05:30N 43°18' E 005°22'611.5
2017-Jul-16 05:00N 43°13' E 005°18'7214.8
2017-Jul-16 00:11N 42°35' E 006°41'314.8
2017-Jul-16 00:00N 42°34' E 006°45'715.0
2017-Jul-15 23:30N 42°31' E 006°54'815.2
2017-Jul-15 23:00N 42°27' E 007°02'815.3
2017-Jul-15 22:30N 42°23' E 007°11'815.4
2017-Jul-15 22:00N 42°19' E 007°20'815.5
2017-Jul-15 21:30N 42°15' E 007°29'815.3
2017-Jul-15 21:00N 42°12' E 007°38'815.1
2017-Jul-15 20:30N 42°08' E 007°47'815.2
2017-Jul-15 19:59N 42°04' E 007°56'815.3
2017-Jul-15 19:30N 42°00' E 008°05'815.1
2017-Jul-15 19:00N 41°57' E 008°14'7 0.5
2017-Jul-15 02:47N 42°00' E 008°05'415.8
2017-Jul-15 02:31N 42°03' E 008°00'815.8
2017-Jul-15 02:00N 42°06' E 007°51'815.9
2017-Jul-15 01:31N 42°10' E 007°42'815.9
2017-Jul-15 01:01N 42°14' E 007°32'815.8
2017-Jul-15 00:30N 42°18' E 007°23'815.7
2017-Jul-15 00:00N 42°22' E 007°14'815.6
2017-Jul-14 23:30N 42°26' E 007°05'815.6
2017-Jul-14 23:00N 42°29' E 006°55'815.5
2017-Jul-14 22:30N 42°34' E 006°46'915.8
2017-Jul-14 21:57N 42°38' E 006°36'6615.8
2017-Jul-14 17:46N 43°12' E 005°19'415.2
2017-Jul-14 17:30N 43°16' E 005°19'3 0.2
2017-Jul-14 05:03N 43°19' E 005°22'6413.5
2017-Jul-14 00:20N 42°45' E 006°36'516.1
2017-Jul-14 00:00N 42°42' E 006°42'816.0
2017-Jul-13 23:31N 42°38' E 006°51'816.3
2017-Jul-13 23:01N 42°33' E 007°00'816.2
2017-Jul-13 22:31N 42°29' E 007°09'816.1
2017-Jul-13 22:01N 42°24' E 007°18'816.2
2017-Jul-13 21:30N 42°20' E 007°28'816.0
2017-Jul-13 21:01N 42°16' E 007°37'815.3
2017-Jul-13 20:30N 42°12' E 007°46'8 0.4
2017-Jul-13 00:42N 42°13' E 007°35'317.6
2017-Jul-13 00:30N 42°15' E 007°31'917.7
2017-Jul-12 23:58N 42°19' E 007°20'817.8
2017-Jul-12 23:30N 42°23' E 007°10'918.0
2017-Jul-12 23:00N 42°28' E 006°59'918.0
2017-Jul-12 22:31N 42°32' E 006°49'1618.1
2017-Jul-12 21:37N 42°41' E 006°30'217.9
2017-Jul-12 21:31N 42°42' E 006°28'917.8
2017-Jul-12 21:00N 42°46' E 006°18'3217.7
2017-Jul-12 19:11N 43°01' E 005°39'  
Track history (hours):
 
Tides and Currents Weather Stations Pressure Air Temp Water Temp Dewpoint Dewpoint Depression Visibility Wind Speed Wind Dir Waves Ship Positions

Girolata

Last reported at 2017-Jul-22 18:11 UTC. Time now 2017-Jul-22 18:34 UTC.
Position N 43°08' E 005°23'.

Length 177 m; beam 27 m.

Type: Passenger vessel. MMSI: 226245000.

Date/timePositionNaut miles runAvg speedWind from/ knotsBaromVisibWave heightAir tempDewpointWater temp
2017-Jul-22 18:11N 43°08' E 005°23'315.5
2017-Jul-22 18:00N 43°10' E 005°20'712.8
2017-Jul-22 17:29N 43°17' E 005°20'2 0.3
2017-Jul-22 09:36N 43°19' E 005°22'0 0.0
2017-Jul-22 08:45N 43°19' E 005°22'0 0.0
2017-Jul-22 08:30N 43°19' E 005°22'0 0.0
2017-Jul-22 08:00N 43°19' E 005°22'0 0.0
2017-Jul-22 06:06N 43°19' E 005°22'0 0.0
2017-Jul-22 06:00N 43°19' E 005°22'0 0.0
2017-Jul-22 05:30N 43°19' E 005°22'0 0.0
2017-Jul-22 05:00N 43°19' E 005°22'0 0.2
2017-Jul-22 04:30N 43°19' E 005°22'510.3
2017-Jul-22 04:01N 43°14' E 005°18'816.4
2017-Jul-22 03:30N 43°08' E 005°25'1317.2
2017-Jul-22 02:45N 43°01' E 005°40'119 4.8
2017-Jul-21 01:57N 42°02' E 008°00'818.2
2017-Jul-21 01:31N 42°06' E 007°51'918.3
2017-Jul-21 01:01N 42°11' E 007°40'918.2
2017-Jul-21 00:31N 42°15' E 007°29'918.2
2017-Jul-21 00:01N 42°20' E 007°18'918.0
2017-Jul-20 23:30N 42°24' E 007°08'918.3
2017-Jul-20 23:00N 42°28' E 006°57'918.2
2017-Jul-20 22:30N 42°34' E 006°46'918.1
2017-Jul-20 22:01N 42°38' E 006°36'918.2
2017-Jul-20 21:30N 42°42' E 006°25'918.4
2017-Jul-20 21:00N 42°47' E 006°14'918.4
2017-Jul-20 20:30N 42°51' E 006°03'918.4
2017-Jul-20 20:00N 42°56' E 005°52'2418.2
2017-Jul-20 18:41N 43°08' E 005°24'318.4
2017-Jul-20 18:30N 43°10' E 005°21'713.7
2017-Jul-20 17:59N 43°18' E 005°20'1 2.7
2017-Jul-20 17:26N 43°19' E 005°22'0 0.0
2017-Jul-20 16:59N 43°19' E 005°22'0 0.0
2017-Jul-20 16:29N 43°19' E 005°22'0 0.0
2017-Jul-20 15:59N 43°19' E 005°22'0 0.0
2017-Jul-20 15:29N 43°19' E 005°22'0 0.0
2017-Jul-20 14:59N 43°19' E 005°22'0 0.0
2017-Jul-20 13:59N 43°19' E 005°22'0 0.0
2017-Jul-20 13:29N 43°19' E 005°22'0 0.0
2017-Jul-20 12:59N 43°19' E 005°22'0 0.0
2017-Jul-20 12:29N 43°19' E 005°22'0 0.0
2017-Jul-20 11:56N 43°19' E 005°22'0 0.0
2017-Jul-20 11:26N 43°19' E 005°22'0 0.0
2017-Jul-20 10:56N 43°19' E 005°22'0 0.0
2017-Jul-20 10:26N 43°19' E 005°22'0 0.0
2017-Jul-20 09:53N 43°19' E 005°22'0 0.0
2017-Jul-20 09:23N 43°19' E 005°22'0 0.0
2017-Jul-20 08:59N 43°19' E 005°22'0 0.0
2017-Jul-20 08:29N 43°19' E 005°22'0 0.0
2017-Jul-20 07:59N 43°19' E 005°22'0 0.0
2017-Jul-20 07:29N 43°19' E 005°22'0 0.0
2017-Jul-20 06:59N 43°19' E 005°22'0 0.0
2017-Jul-20 06:29N 43°19' E 005°22'0 0.0
2017-Jul-20 05:56N 43°19' E 005°22'0 0.0
2017-Jul-20 05:11N 43°19' E 005°22'0 0.0
2017-Jul-20 04:56N 43°19' E 005°22'2 3.0
2017-Jul-20 04:17N 43°17' E 005°20'312.0
2017-Jul-20 04:00N 43°14' E 005°18'816.9
2017-Jul-20 03:30N 43°08' E 005°25'2217.5
2017-Jul-20 02:14N 42°56' E 005°52'417.7
2017-Jul-20 01:59N 42°54' E 005°56'817.7
2017-Jul-20 01:30N 42°49' E 006°06'917.5
2017-Jul-20 01:00N 42°45' E 006°16'917.6
2017-Jul-20 00:31N 42°41' E 006°27'917.3
2017-Jul-20 00:01N 42°37' E 006°38'917.3
2017-Jul-19 23:31N 42°33' E 006°48'917.3
2017-Jul-19 23:00N 42°29' E 006°59'917.3
2017-Jul-19 22:31N 42°24' E 007°08'917.4
2017-Jul-19 22:00N 42°20' E 007°18'917.3
2017-Jul-19 21:31N 42°16' E 007°29'917.4
2017-Jul-19 21:00N 42°12' E 007°39'917.4
2017-Jul-19 20:30N 42°07' E 007°49'917.4
2017-Jul-19 20:00N 42°03' E 007°59'917.5
2017-Jul-19 19:30N 41°59' E 008°09'917.4
2017-Jul-19 19:00N 41°54' E 008°20'917.4
2017-Jul-19 18:30N 41°50' E 008°30'816.7
2017-Jul-19 18:00N 41°52' E 008°41'2 0.2
2017-Jul-19 03:59N 41°53' E 008°43'816.7
2017-Jul-19 03:30N 41°49' E 008°34'1418.6
2017-Jul-19 02:45N 41°56' E 008°17'1018.7
2017-Jul-19 02:14N 42°00' E 008°05'918.2
2017-Jul-19 01:46N 42°05' E 007°55'718.3
2017-Jul-19 01:23N 42°08' E 007°47'918.3
2017-Jul-19 00:53N 42°13' E 007°36'918.4
2017-Jul-19 00:23N 42°17' E 007°25'718.2
2017-Jul-19 00:01N 42°21' E 007°17'918.2
2017-Jul-18 23:30N 42°25' E 007°07'918.3
2017-Jul-18 23:00N 42°29' E 006°56'918.1
2017-Jul-18 22:30N 42°34' E 006°45'816.4
2017-Jul-18 22:01N 42°38' E 006°35'1318.1
2017-Jul-18 21:17N 42°44' E 006°20'718.3
2017-Jul-18 20:55N 42°48' E 006°12'1218.3
2017-Jul-18 20:17N 42°53' E 005°58'518.2
2017-Jul-18 20:00N 42°56' E 005°52'918.3
2017-Jul-18 19:30N 43°00' E 005°41'918.5
2017-Jul-18 19:00N 43°05' E 005°30'918.2
2017-Jul-18 18:30N 43°10' E 005°20'713.8
2017-Jul-18 18:00N 43°17' E 005°20'2 2.5
2017-Jul-18 17:17N 43°19' E 005°22'0 0.0
2017-Jul-18 16:59N 43°19' E 005°22'0 0.0
2017-Jul-18 16:29N 43°19' E 005°22'0 0.0
2017-Jul-18 15:59N 43°19' E 005°22'0 0.0
2017-Jul-18 15:29N 43°19' E 005°22'0 0.0
2017-Jul-18 14:59N 43°19' E 005°22'0 0.0
2017-Jul-18 13:59N 43°19' E 005°22'0 0.0
2017-Jul-18 13:23N 43°19' E 005°22'0 0.0
2017-Jul-18 12:47N 43°19' E 005°22'0 0.0
2017-Jul-18 12:29N 43°19' E 005°22'0 0.0
2017-Jul-18 09:08N 43°19' E 005°22'0 0.0
2017-Jul-18 08:47N 43°19' E 005°22'0 0.0
2017-Jul-18 07:26N 43°19' E 005°22'0 0.0
2017-Jul-18 05:26N 43°19' E 005°22'1 1.5
2017-Jul-18 05:00N 43°18' E 005°22'1 2.5
2017-Jul-18 04:30N 43°18' E 005°20'4 8.1
2017-Jul-18 04:00N 43°14' E 005°18'1516.1
2017-Jul-18 03:06N 43°04' E 005°33'416.3
2017-Jul-18 02:50N 43°02' E 005°38'3016.7
2017-Jul-18 01:03N 42°47' E 006°13'316.8
2017-Jul-18 00:52N 42°45' E 006°16'616.9
2017-Jul-18 00:31N 42°42' E 006°24'1216.7
2017-Jul-17 23:46N 42°37' E 006°39'416.6
2017-Jul-17 23:31N 42°35' E 006°44'816.6
2017-Jul-17 23:01N 42°31' E 006°54'816.6
2017-Jul-17 22:30N 42°26' E 007°03'816.5
2017-Jul-17 22:01N 42°22' E 007°13'816.7
2017-Jul-17 21:31N 42°18' E 007°23'816.7
2017-Jul-17 21:01N 42°15' E 007°33'816.5
2017-Jul-17 20:31N 42°11' E 007°42'11 0.5
2017-Jul-17 00:35N 42°15' E 007°29'217.1
2017-Jul-17 00:27N 42°16' E 007°27'6016.7
2017-Jul-16 20:52N 42°46' E 006°16'616.8
2017-Jul-16 20:30N 42°49' E 006°09'916.8
2017-Jul-16 20:00N 42°53' E 005°58'1416.8
2017-Jul-16 19:11N 42°60' E 005°42'416.8
2017-Jul-16 18:55N 43°02' E 005°37'1716.8
2017-Jul-16 17:55N 43°12' E 005°19'512.4
2017-Jul-16 17:30N 43°17' E 005°20'2 0.1
2017-Jul-16 05:33N 43°18' E 005°22'0 7.5
2017-Jul-16 05:30N 43°18' E 005°22'611.5
2017-Jul-16 05:00N 43°13' E 005°18'7214.8
2017-Jul-16 00:11N 42°35' E 006°41'314.8
2017-Jul-16 00:00N 42°34' E 006°45'715.0
2017-Jul-15 23:30N 42°31' E 006°54'815.2
2017-Jul-15 23:00N 42°27' E 007°02'815.3
2017-Jul-15 22:30N 42°23' E 007°11'815.4
2017-Jul-15 22:00N 42°19' E 007°20'815.5
2017-Jul-15 21:30N 42°15' E 007°29'815.3
2017-Jul-15 21:00N 42°12' E 007°38'815.1
2017-Jul-15 20:30N 42°08' E 007°47'815.2
2017-Jul-15 19:59N 42°04' E 007°56'815.3
2017-Jul-15 19:30N 42°00' E 008°05'815.1
2017-Jul-15 19:00N 41°57' E 008°14'7 0.5
2017-Jul-15 02:47N 42°00' E 008°05'415.8
2017-Jul-15 02:31N 42°03' E 008°00'815.8
2017-Jul-15 02:00N 42°06' E 007°51'815.9
2017-Jul-15 01:31N 42°10' E 007°42'815.9
2017-Jul-15 01:01N 42°14' E 007°32'815.8
2017-Jul-15 00:30N 42°18' E 007°23'815.7
2017-Jul-15 00:00N 42°22' E 007°14'815.6
2017-Jul-14 23:30N 42°26' E 007°05'815.6
2017-Jul-14 23:00N 42°29' E 006°55'815.5
2017-Jul-14 22:30N 42°34' E 006°46'915.8
2017-Jul-14 21:57N 42°38' E 006°36'6615.8
2017-Jul-14 17:46N 43°12' E 005°19'415.2
2017-Jul-14 17:30N 43°16' E 005°19'3 0.2
2017-Jul-14 05:03N 43°19' E 005°22'6413.5
2017-Jul-14 00:20N 42°45' E 006°36'516.1
2017-Jul-14 00:00N 42°42' E 006°42'816.0
2017-Jul-13 23:31N 42°38' E 006°51'816.3
2017-Jul-13 23:01N 42°33' E 007°00'816.2
2017-Jul-13 22:31N 42°29' E 007°09'816.1
2017-Jul-13 22:01N 42°24' E 007°18'816.2
2017-Jul-13 21:30N 42°20' E 007°28'816.0
2017-Jul-13 21:01N 42°16' E 007°37'815.3
2017-Jul-13 20:30N 42°12' E 007°46'8 0.4
2017-Jul-13 00:42N 42°13' E 007°35'317.6
2017-Jul-13 00:30N 42°15' E 007°31'917.7
2017-Jul-12 23:58N 42°19' E 007°20'817.8
2017-Jul-12 23:30N 42°23' E 007°10'918.0
2017-Jul-12 23:00N 42°28' E 006°59'918.0
2017-Jul-12 22:31N 42°32' E 006°49'1618.1
2017-Jul-12 21:37N 42°41' E 006°30'217.9
2017-Jul-12 21:31N 42°42' E 006°28'917.8
2017-Jul-12 21:00N 42°46' E 006°18'3217.7
2017-Jul-12 19:11N 43°01' E 005°39'  

Dump ship's entire track history